sensor_id;sensor_type;location;lat;lon;timestamp;P1;durP1;ratioP1;P2;durP2;ratioP2
22935;SDS011;11633;42.716;23.312;2022-08-01T00:02:14;1.92;;;1.75;;
22935;SDS011;11633;42.716;23.312;2022-08-01T00:04:40;1.75;;;1.60;;
22935;SDS011;11633;42.716;23.312;2022-08-01T00:07:05;2.38;;;2.17;;
22935;SDS011;11633;42.716;23.312;2022-08-01T00:09:30;2.65;;;2.35;;
22935;SDS011;11633;42.716;23.312;2022-08-01T00:11:55;2.38;;;2.17;;
22935;SDS011;11633;42.716;23.312;2022-08-01T00:14:21;2.58;;;2.38;;
22935;SDS011;11633;42.716;23.312;2022-08-01T00:16:46;3.38;;;3.08;;
22935;SDS011;11633;42.716;23.312;2022-08-01T00:19:11;3.58;;;3.25;;
22935;SDS011;11633;42.716;23.312;2022-08-01T00:21:37;3.72;;;3.30;;
22935;SDS011;11633;42.716;23.312;2022-08-01T00:24:02;3.47;;;3.17;;
22935;SDS011;11633;42.716;23.312;2022-08-01T00:26:27;3.38;;;3.08;;
22935;SDS011;11633;42.716;23.312;2022-08-01T00:28:52;2.92;;;2.67;;
22935;SDS011;11633;42.716;23.312;2022-08-01T00:31:18;3.45;;;3.15;;
22935;SDS011;11633;42.716;23.312;2022-08-01T00:33:43;3.47;;;3.17;;
22935;SDS011;11633;42.716;23.312;2022-08-01T00:36:08;3.17;;;2.90;;
22935;SDS011;11633;42.716;23.312;2022-08-01T00:38:33;3.10;;;2.70;;
22935;SDS011;11633;42.716;23.312;2022-08-01T00:40:59;3.55;;;3.25;;
22935;SDS011;11633;42.716;23.312;2022-08-01T00:43:24;3.05;;;2.75;;
22935;SDS011;11633;42.716;23.312;2022-08-01T00:45:49;3.00;;;2.70;;
22935;SDS011;11633;42.716;23.312;2022-08-01T00:48:14;3.42;;;3.13;;
22935;SDS011;11633;42.716;23.312;2022-08-01T00:50:40;3.00;;;2.75;;
22935;SDS011;11633;42.716;23.312;2022-08-01T00:53:05;3.70;;;2.67;;
22935;SDS011;11633;42.716;23.312;2022-08-01T00:55:30;3.72;;;2.97;;
22935;SDS011;11633;42.716;23.312;2022-08-01T00:57:56;2.72;;;2.42;;
22935;SDS011;11633;42.716;23.312;2022-08-01T01:00:21;3.22;;;2.65;;
22935;SDS011;11633;42.716;23.312;2022-08-01T01:02:47;2.55;;;2.35;;
22935;SDS011;11633;42.716;23.312;2022-08-01T01:05:12;2.50;;;2.30;;
22935;SDS011;11633;42.716;23.312;2022-08-01T01:07:57;2.80;;;2.50;;
22935;SDS011;11633;42.716;23.312;2022-08-01T01:13:09;4.20;;;3.00;;
22935;SDS011;11633;42.716;23.312;2022-08-01T01:15:46;2.63;;;2.42;;
22935;SDS011;11633;42.716;23.312;2022-08-01T01:18:25;2.60;;;2.15;;
22935;SDS011;11633;42.716;23.312;2022-08-01T01:28:51;2.67;;;2.45;;
22935;SDS011;11633;42.716;23.312;2022-08-01T01:31:18;2.40;;;2.20;;
22935;SDS011;11633;42.716;23.312;2022-08-01T01:33:45;2.58;;;1.80;;
22935;SDS011;11633;42.716;23.312;2022-08-01T01:36:11;3.08;;;2.20;;
22935;SDS011;11633;42.716;23.312;2022-08-01T01:38:39;1.92;;;1.83;;
22935;SDS011;11633;42.716;23.312;2022-08-01T01:41:07;1.98;;;1.77;;
22935;SDS011;11633;42.716;23.312;2022-08-01T01:43:33;2.13;;;2.00;;
22935;SDS011;11633;42.716;23.312;2022-08-01T01:45:59;1.70;;;1.60;;
22935;SDS011;11633;42.716;23.312;2022-08-01T01:48:25;1.73;;;1.60;;
22935;SDS011;11633;42.716;23.312;2022-08-01T01:50:51;4.28;;;1.70;;
22935;SDS011;11633;42.716;23.312;2022-08-01T01:53:18;1.40;;;1.30;;
22935;SDS011;11633;42.716;23.312;2022-08-01T01:55:44;1.40;;;1.30;;
22935;SDS011;11633;42.716;23.312;2022-08-01T01:58:12;1.70;;;1.60;;
22935;SDS011;11633;42.716;23.312;2022-08-01T02:00:38;1.80;;;1.70;;
22935;SDS011;11633;42.716;23.312;2022-08-01T02:03:04;1.23;;;1.13;;
22935;SDS011;11633;42.716;23.312;2022-08-01T02:05:30;1.25;;;1.15;;
22935;SDS011;11633;42.716;23.312;2022-08-01T02:07:59;1.30;;;1.20;;
22935;SDS011;11633;42.716;23.312;2022-08-01T02:10:24;1.20;;;1.10;;
22935;SDS011;11633;42.716;23.312;2022-08-01T02:12:50;1.27;;;1.10;;
22935;SDS011;11633;42.716;23.312;2022-08-01T02:15:16;1.52;;;1.30;;
22935;SDS011;11633;42.716;23.312;2022-08-01T02:17:43;1.52;;;1.15;;
22935;SDS011;11633;42.716;23.312;2022-08-01T02:20:09;5.47;;;2.58;;
22935;SDS011;11633;42.716;23.312;2022-08-01T02:22:36;1.63;;;1.00;;
22935;SDS011;11633;42.716;23.312;2022-08-01T02:27:40;1.67;;;1.58;;
22935;SDS011;11633;42.716;23.312;2022-08-01T02:30:07;2.20;;;2.00;;
22935;SDS011;11633;42.716;23.312;2022-08-01T02:32:40;2.20;;;2.00;;
22935;SDS011;11633;42.716;23.312;2022-08-01T02:35:11;1.58;;;1.42;;
22935;SDS011;11633;42.716;23.312;2022-08-01T02:37:37;2.45;;;2.10;;
22935;SDS011;11633;42.716;23.312;2022-08-01T02:40:03;1.90;;;1.48;;
22935;SDS011;11633;42.716;23.312;2022-08-01T02:42:29;1.60;;;1.50;;
22935;SDS011;11633;42.716;23.312;2022-08-01T02:44:55;1.83;;;1.48;;
22935;SDS011;11633;42.716;23.312;2022-08-01T02:47:21;2.03;;;1.73;;
22935;SDS011;11633;42.716;23.312;2022-08-01T02:49:47;2.28;;;1.63;;
22935;SDS011;11633;42.716;23.312;2022-08-01T02:52:14;2.20;;;2.00;;
22935;SDS011;11633;42.716;23.312;2022-08-01T02:54:40;1.95;;;1.75;;
22935;SDS011;11633;42.716;23.312;2022-08-01T02:57:07;1.83;;;1.63;;
22935;SDS011;11633;42.716;23.312;2022-08-01T02:59:33;2.10;;;1.65;;
22935;SDS011;11633;42.716;23.312;2022-08-01T03:02:02;2.00;;;1.60;;
22935;SDS011;11633;42.716;23.312;2022-08-01T03:04:29;2.15;;;1.95;;
22935;SDS011;11633;42.716;23.312;2022-08-01T03:06:55;1.60;;;1.50;;
22935;SDS011;11633;42.716;23.312;2022-08-01T03:09:23;3.50;;;1.50;;
22935;SDS011;11633;42.716;23.312;2022-08-01T03:11:50;2.15;;;1.70;;
22935;SDS011;11633;42.716;23.312;2022-08-01T03:14:16;1.70;;;1.60;;
22935;SDS011;11633;42.716;23.312;2022-08-01T03:16:42;2.13;;;1.83;;
22935;SDS011;11633;42.716;23.312;2022-08-01T03:19:09;2.45;;;2.25;;
22935;SDS011;11633;42.716;23.312;2022-08-01T03:21:35;2.00;;;1.85;;
22935;SDS011;11633;42.716;23.312;2022-08-01T03:24:03;2.10;;;1.88;;
22935;SDS011;11633;42.716;23.312;2022-08-01T03:26:30;2.22;;;1.92;;
22935;SDS011;11633;42.716;23.312;2022-08-01T03:28:59;2.30;;;2.08;;
22935;SDS011;11633;42.716;23.312;2022-08-01T03:31:26;2.97;;;2.22;;
22935;SDS011;11633;42.716;23.312;2022-08-01T03:33:52;2.03;;;1.83;;
22935;SDS011;11633;42.716;23.312;2022-08-01T03:36:17;2.50;;;2.05;;
22935;SDS011;11633;42.716;23.312;2022-08-01T03:38:44;2.80;;;2.38;;
22935;SDS011;11633;42.716;23.312;2022-08-01T03:41:12;2.58;;;2.30;;
22935;SDS011;11633;42.716;23.312;2022-08-01T03:43:43;3.58;;;2.40;;
22935;SDS011;11633;42.716;23.312;2022-08-01T03:46:11;2.80;;;2.35;;
22935;SDS011;11633;42.716;23.312;2022-08-01T03:48:43;2.80;;;2.50;;
22935;SDS011;11633;42.716;23.312;2022-08-01T03:51:11;2.42;;;2.22;;
22935;SDS011;11633;42.716;23.312;2022-08-01T03:53:37;2.45;;;2.22;;
22935;SDS011;11633;42.716;23.312;2022-08-01T03:56:04;2.33;;;2.13;;
22935;SDS011;11633;42.716;23.312;2022-08-01T03:58:29;4.28;;;2.20;;
22935;SDS011;11633;42.716;23.312;2022-08-01T04:00:55;4.07;;;3.03;;
22935;SDS011;11633;42.716;23.312;2022-08-01T04:03:21;2.22;;;2.03;;
22935;SDS011;11633;42.716;23.312;2022-08-01T04:05:46;2.75;;;2.35;;
22935;SDS011;11633;42.716;23.312;2022-08-01T04:08:11;3.45;;;2.20;;
22935;SDS011;11633;42.716;23.312;2022-08-01T04:10:37;4.50;;;2.60;;
22935;SDS011;11633;42.716;23.312;2022-08-01T04:13:02;3.00;;;2.42;;
22935;SDS011;11633;42.716;23.312;2022-08-01T04:15:27;2.67;;;2.47;;
22935;SDS011;11633;42.716;23.312;2022-08-01T04:17:53;4.15;;;2.70;;
22935;SDS011;11633;42.716;23.312;2022-08-01T04:20:19;4.20;;;2.70;;
22935;SDS011;11633;42.716;23.312;2022-08-01T04:22:44;3.20;;;2.63;;
22935;SDS011;11633;42.716;23.312;2022-08-01T04:25:19;4.45;;;2.85;;
22935;SDS011;11633;42.716;23.312;2022-08-01T04:27:46;3.90;;;2.72;;
22935;SDS011;11633;42.716;23.312;2022-08-01T04:30:13;3.90;;;2.97;;
22935;SDS011;11633;42.716;23.312;2022-08-01T04:32:39;4.22;;;2.97;;
22935;SDS011;11633;42.716;23.312;2022-08-01T04:35:07;3.83;;;2.63;;
22935;SDS011;11633;42.716;23.312;2022-08-01T04:37:34;4.53;;;3.40;;
22935;SDS011;11633;42.716;23.312;2022-08-01T04:40:02;4.55;;;3.58;;
22935;SDS011;11633;42.716;23.312;2022-08-01T04:42:28;3.25;;;2.95;;
22935;SDS011;11633;42.716;23.312;2022-08-01T04:44:53;7.60;;;3.58;;
22935;SDS011;11633;42.716;23.312;2022-08-01T04:47:18;3.50;;;3.08;;
22935;SDS011;11633;42.716;23.312;2022-08-01T04:49:44;3.55;;;3.13;;
22935;SDS011;11633;42.716;23.312;2022-08-01T04:52:11;5.68;;;3.15;;
22935;SDS011;11633;42.716;23.312;2022-08-01T04:54:36;3.42;;;3.10;;
22935;SDS011;11633;42.716;23.312;2022-08-01T04:57:02;3.45;;;2.83;;
22935;SDS011;11633;42.716;23.312;2022-08-01T04:59:28;4.72;;;4.15;;
22935;SDS011;11633;42.716;23.312;2022-08-01T05:02:06;3.60;;;3.10;;
22935;SDS011;11633;42.716;23.312;2022-08-01T05:04:32;2.80;;;2.25;;
22935;SDS011;11633;42.716;23.312;2022-08-01T05:06:57;2.80;;;2.47;;
22935;SDS011;11633;42.716;23.312;2022-08-01T05:09:22;4.35;;;3.17;;
22935;SDS011;11633;42.716;23.312;2022-08-01T05:11:47;3.67;;;2.37;;
22935;SDS011;11633;42.716;23.312;2022-08-01T05:14:13;2.30;;;2.10;;
22935;SDS011;11633;42.716;23.312;2022-08-01T05:16:38;3.83;;;2.40;;
22935;SDS011;11633;42.716;23.312;2022-08-01T05:19:03;2.55;;;1.90;;
22935;SDS011;11633;42.716;23.312;2022-08-01T05:21:28;2.38;;;2.17;;
22935;SDS011;11633;42.716;23.312;2022-08-01T05:23:54;2.22;;;2.03;;
22935;SDS011;11633;42.716;23.312;2022-08-01T05:26:19;2.60;;;2.40;;
22935;SDS011;11633;42.716;23.312;2022-08-01T05:28:44;2.42;;;2.22;;
22935;SDS011;11633;42.716;23.312;2022-08-01T05:31:10;2.58;;;1.88;;
22935;SDS011;11633;42.716;23.312;2022-08-01T05:33:35;2.22;;;2.03;;
22935;SDS011;11633;42.716;23.312;2022-08-01T05:36:00;2.10;;;2.00;;
22935;SDS011;11633;42.716;23.312;2022-08-01T05:38:26;2.60;;;1.90;;
22935;SDS011;11633;42.716;23.312;2022-08-01T05:40:51;4.22;;;2.00;;
22935;SDS011;11633;42.716;23.312;2022-08-01T05:43:16;3.13;;;1.67;;
22935;SDS011;11633;42.716;23.312;2022-08-01T05:45:41;2.05;;;1.92;;
22935;SDS011;11633;42.716;23.312;2022-08-01T05:48:07;3.95;;;2.00;;
22935;SDS011;11633;42.716;23.312;2022-08-01T05:50:32;1.52;;;1.40;;
22935;SDS011;11633;42.716;23.312;2022-08-01T05:52:57;1.65;;;1.48;;
22935;SDS011;11633;42.716;23.312;2022-08-01T05:55:23;1.98;;;1.88;;
22935;SDS011;11633;42.716;23.312;2022-08-01T05:57:48;4.13;;;2.10;;
22935;SDS011;11633;42.716;23.312;2022-08-01T06:00:13;2.75;;;1.75;;
22935;SDS011;11633;42.716;23.312;2022-08-01T06:02:40;1.73;;;1.40;;
22935;SDS011;11633;42.716;23.312;2022-08-01T06:05:06;2.17;;;1.67;;
22935;SDS011;11633;42.716;23.312;2022-08-01T06:07:31;1.67;;;1.58;;
22935;SDS011;11633;42.716;23.312;2022-08-01T06:09:57;1.60;;;1.50;;
22935;SDS011;11633;42.716;23.312;2022-08-01T06:12:22;2.83;;;1.88;;
22935;SDS011;11633;42.716;23.312;2022-08-01T06:14:47;1.38;;;1.17;;
22935;SDS011;11633;42.716;23.312;2022-08-01T06:17:12;1.40;;;1.30;;
22935;SDS011;11633;42.716;23.312;2022-08-01T06:19:38;2.72;;;1.88;;
22935;SDS011;11633;42.716;23.312;2022-08-01T06:22:03;1.80;;;1.30;;
22935;SDS011;11633;42.716;23.312;2022-08-01T06:24:28;2.40;;;1.45;;
22935;SDS011;11633;42.716;23.312;2022-08-01T06:26:53;1.33;;;1.17;;
22935;SDS011;11633;42.716;23.312;2022-08-01T06:29:19;1.65;;;1.40;;
22935;SDS011;11633;42.716;23.312;2022-08-01T06:31:44;1.00;;;0.93;;
22935;SDS011;11633;42.716;23.312;2022-08-01T06:34:09;2.75;;;1.30;;
22935;SDS011;11633;42.716;23.312;2022-08-01T06:36:34;1.30;;;1.20;;
22935;SDS011;11633;42.716;23.312;2022-08-01T06:39:00;1.53;;;1.30;;
22935;SDS011;11633;42.716;23.312;2022-08-01T06:41:25;1.33;;;1.23;;
22935;SDS011;11633;42.716;23.312;2022-08-01T06:43:50;1.30;;;1.20;;
22935;SDS011;11633;42.716;23.312;2022-08-01T06:46:15;0.98;;;0.90;;
22935;SDS011;11633;42.716;23.312;2022-08-01T06:48:40;1.42;;;1.33;;
22935;SDS011;11633;42.716;23.312;2022-08-01T06:51:07;1.23;;;1.13;;
22935;SDS011;11633;42.716;23.312;2022-08-01T06:53:33;1.30;;;1.20;;
22935;SDS011;11633;42.716;23.312;2022-08-01T06:55:58;1.10;;;1.00;;
22935;SDS011;11633;42.716;23.312;2022-08-01T06:58:23;1.23;;;1.13;;
22935;SDS011;11633;42.716;23.312;2022-08-01T07:00:49;1.35;;;1.20;;
22935;SDS011;11633;42.716;23.312;2022-08-01T07:03:14;1.27;;;1.17;;
22935;SDS011;11633;42.716;23.312;2022-08-01T07:05:39;1.20;;;1.10;;
22935;SDS011;11633;42.716;23.312;2022-08-01T07:08:04;0.90;;;0.90;;
22935;SDS011;11633;42.716;23.312;2022-08-01T07:10:30;1.25;;;1.17;;
22935;SDS011;11633;42.716;23.312;2022-08-01T07:12:55;1.23;;;1.10;;
22935;SDS011;11633;42.716;23.312;2022-08-01T07:15:20;1.10;;;1.00;;
22935;SDS011;11633;42.716;23.312;2022-08-01T07:17:51;1.40;;;1.02;;
22935;SDS011;11633;42.716;23.312;2022-08-01T07:20:17;1.98;;;1.05;;
22935;SDS011;11633;42.716;23.312;2022-08-01T07:22:42;1.33;;;1.08;;
22935;SDS011;11633;42.716;23.312;2022-08-01T07:25:08;1.52;;;1.02;;
22935;SDS011;11633;42.716;23.312;2022-08-01T07:27:33;1.70;;;1.35;;
22935;SDS011;11633;42.716;23.312;2022-08-01T07:29:59;1.85;;;1.15;;
22935;SDS011;11633;42.716;23.312;2022-08-01T07:32:24;1.73;;;1.63;;
22935;SDS011;11633;42.716;23.312;2022-08-01T07:34:49;3.17;;;1.53;;
22935;SDS011;11633;42.716;23.312;2022-08-01T07:37:14;1.52;;;1.40;;
22935;SDS011;11633;42.716;23.312;2022-08-01T07:39:40;1.60;;;1.50;;
22935;SDS011;11633;42.716;23.312;2022-08-01T07:42:05;1.25;;;1.20;;
22935;SDS011;11633;42.716;23.312;2022-08-01T07:44:30;2.58;;;1.38;;
22935;SDS011;11633;42.716;23.312;2022-08-01T07:46:55;1.40;;;1.20;;
22935;SDS011;11633;42.716;23.312;2022-08-01T07:49:21;2.60;;;1.27;;
22935;SDS011;11633;42.716;23.312;2022-08-01T07:51:47;1.10;;;1.10;;
22935;SDS011;11633;42.716;23.312;2022-08-01T07:54:12;1.50;;;1.23;;
22935;SDS011;11633;42.716;23.312;2022-08-01T07:56:37;1.77;;;1.23;;
22935;SDS011;11633;42.716;23.312;2022-08-01T07:59:02;1.20;;;1.10;;
22935;SDS011;11633;42.716;23.312;2022-08-01T08:01:28;1.45;;;1.35;;
22935;SDS011;11633;42.716;23.312;2022-08-01T08:03:53;1.60;;;1.50;;
22935;SDS011;11633;42.716;23.312;2022-08-01T08:06:18;1.50;;;1.40;;
22935;SDS011;11633;42.716;23.312;2022-08-01T08:08:43;1.55;;;1.23;;
22935;SDS011;11633;42.716;23.312;2022-08-01T08:11:09;1.40;;;1.30;;
22935;SDS011;11633;42.716;23.312;2022-08-01T08:13:34;1.35;;;1.08;;
22935;SDS011;11633;42.716;23.312;2022-08-01T08:15:59;2.13;;;1.13;;
22935;SDS011;11633;42.716;23.312;2022-08-01T08:18:25;1.55;;;1.15;;
22935;SDS011;11633;42.716;23.312;2022-08-01T08:20:50;1.13;;;1.02;;
22935;SDS011;11633;42.716;23.312;2022-08-01T08:23:15;1.52;;;1.20;;
22935;SDS011;11633;42.716;23.312;2022-08-01T08:25:59;1.60;;;1.50;;
22935;SDS011;11633;42.716;23.312;2022-08-01T08:28:25;1.25;;;1.15;;
22935;SDS011;11633;42.716;23.312;2022-08-01T08:30:50;1.55;;;1.15;;
22935;SDS011;11633;42.716;23.312;2022-08-01T08:33:15;1.63;;;1.40;;
22935;SDS011;11633;42.716;23.312;2022-08-01T08:35:40;2.88;;;1.10;;
22935;SDS011;11633;42.716;23.312;2022-08-01T08:38:06;1.38;;;1.25;;
22935;SDS011;11633;42.716;23.312;2022-08-01T08:40:31;3.33;;;1.58;;
22935;SDS011;11633;42.716;23.312;2022-08-01T08:42:59;1.50;;;1.40;;
22935;SDS011;11633;42.716;23.312;2022-08-01T08:45:25;1.90;;;1.50;;
22935;SDS011;11633;42.716;23.312;2022-08-01T08:47:51;1.42;;;1.10;;
22935;SDS011;11633;42.716;23.312;2022-08-01T08:50:17;1.27;;;1.17;;
22935;SDS011;11633;42.716;23.312;2022-08-01T08:52:42;3.67;;;2.03;;
22935;SDS011;11633;42.716;23.312;2022-08-01T08:55:08;1.20;;;1.10;;
22935;SDS011;11633;42.716;23.312;2022-08-01T08:57:34;4.68;;;1.65;;
22935;SDS011;11633;42.716;23.312;2022-08-01T08:59:59;1.02;;;0.93;;
22935;SDS011;11633;42.716;23.312;2022-08-01T09:02:25;1.40;;;1.30;;
22935;SDS011;11633;42.716;23.312;2022-08-01T09:04:50;1.27;;;1.17;;
22935;SDS011;11633;42.716;23.312;2022-08-01T09:07:16;1.35;;;1.25;;
22935;SDS011;11633;42.716;23.312;2022-08-01T09:09:41;1.55;;;1.00;;
22935;SDS011;11633;42.716;23.312;2022-08-01T09:12:06;2.33;;;1.88;;
22935;SDS011;11633;42.716;23.312;2022-08-01T09:14:32;1.55;;;1.30;;
22935;SDS011;11633;42.716;23.312;2022-08-01T09:19:25;1.52;;;1.17;;
22935;SDS011;11633;42.716;23.312;2022-08-01T09:21:58;1.10;;;1.10;;
22935;SDS011;11633;42.716;23.312;2022-08-01T09:24:24;0.93;;;0.90;;
22935;SDS011;11633;42.716;23.312;2022-08-01T09:26:49;1.42;;;1.15;;
22935;SDS011;11633;42.716;23.312;2022-08-01T09:29:21;1.70;;;1.23;;
22935;SDS011;11633;42.716;23.312;2022-08-01T09:31:46;1.35;;;1.23;;
22935;SDS011;11633;42.716;23.312;2022-08-01T09:34:12;1.77;;;1.10;;
22935;SDS011;11633;42.716;23.312;2022-08-01T09:37:10;1.52;;;1.42;;
22935;SDS011;11633;42.716;23.312;2022-08-01T09:39:34;1.65;;;1.10;;
22935;SDS011;11633;42.716;23.312;2022-08-01T09:44:43;1.15;;;0.85;;
22935;SDS011;11633;42.716;23.312;2022-08-01T09:47:09;4.40;;;1.33;;
22935;SDS011;11633;42.716;23.312;2022-08-01T09:49:35;1.40;;;1.30;;
22935;SDS011;11633;42.716;23.312;2022-08-01T09:54:36;1.42;;;1.15;;
22935;SDS011;11633;42.716;23.312;2022-08-01T09:59:36;1.40;;;1.30;;
22935;SDS011;11633;42.716;23.312;2022-08-01T10:02:02;2.08;;;1.45;;
22935;SDS011;11633;42.716;23.312;2022-08-01T10:04:28;1.17;;;1.08;;
22935;SDS011;11633;42.716;23.312;2022-08-01T10:06:53;1.23;;;1.13;;
22935;SDS011;11633;42.716;23.312;2022-08-01T10:09:28;1.90;;;1.20;;
22935;SDS011;11633;42.716;23.312;2022-08-01T10:11:54;1.45;;;1.35;;
22935;SDS011;11633;42.716;23.312;2022-08-01T10:14:20;1.17;;;1.05;;
22935;SDS011;11633;42.716;23.312;2022-08-01T10:16:48;1.50;;;1.27;;
22935;SDS011;11633;42.716;23.312;2022-08-01T10:19:14;1.40;;;1.30;;
22935;SDS011;11633;42.716;23.312;2022-08-01T10:21:40;1.40;;;1.30;;
22935;SDS011;11633;42.716;23.312;2022-08-01T10:24:06;1.40;;;1.30;;
22935;SDS011;11633;42.716;23.312;2022-08-01T10:26:33;1.65;;;1.55;;
22935;SDS011;11633;42.716;23.312;2022-08-01T10:28:59;0.80;;;0.80;;
22935;SDS011;11633;42.716;23.312;2022-08-01T10:31:25;2.40;;;1.30;;
22935;SDS011;11633;42.716;23.312;2022-08-01T10:33:52;1.52;;;0.90;;
22935;SDS011;11633;42.716;23.312;2022-08-01T10:36:21;1.48;;;0.98;;
22935;SDS011;11633;42.716;23.312;2022-08-01T10:38:47;1.63;;;0.80;;
22935;SDS011;11633;42.716;23.312;2022-08-01T10:41:13;0.95;;;0.95;;
22935;SDS011;11633;42.716;23.312;2022-08-01T10:43:40;1.20;;;1.10;;
22935;SDS011;11633;42.716;23.312;2022-08-01T10:46:05;1.10;;;1.00;;
22935;SDS011;11633;42.716;23.312;2022-08-01T10:48:34;1.05;;;1.00;;
22935;SDS011;11633;42.716;23.312;2022-08-01T10:51:03;2.28;;;1.30;;
22935;SDS011;11633;42.716;23.312;2022-08-01T10:53:29;1.33;;;1.00;;
22935;SDS011;11633;42.716;23.312;2022-08-01T10:58:20;1.17;;;1.07;;
22935;SDS011;11633;42.716;23.312;2022-08-01T11:00:46;1.20;;;1.10;;
22935;SDS011;11633;42.716;23.312;2022-08-01T11:03:11;1.60;;;1.38;;
22935;SDS011;11633;42.716;23.312;2022-08-01T11:05:36;1.10;;;1.10;;
22935;SDS011;11633;42.716;23.312;2022-08-01T11:08:03;1.20;;;1.05;;
22935;SDS011;11633;42.716;23.312;2022-08-01T11:10:39;1.55;;;1.45;;
22935;SDS011;11633;42.716;23.312;2022-08-01T11:13:05;1.02;;;0.93;;
22935;SDS011;11633;42.716;23.312;2022-08-01T11:15:33;1.70;;;1.60;;
22935;SDS011;11633;42.716;23.312;2022-08-01T11:17:59;1.48;;;1.30;;
22935;SDS011;11633;42.716;23.312;2022-08-01T11:20:25;1.52;;;1.20;;
22935;SDS011;11633;42.716;23.312;2022-08-01T11:25:22;1.30;;;1.20;;
22935;SDS011;11633;42.716;23.312;2022-08-01T11:27:47;1.27;;;1.17;;
22935;SDS011;11633;42.716;23.312;2022-08-01T11:32:48;1.27;;;1.10;;
22935;SDS011;11633;42.716;23.312;2022-08-01T11:35:14;1.33;;;1.23;;
22935;SDS011;11633;42.716;23.312;2022-08-01T11:37:39;1.30;;;1.20;;
22935;SDS011;11633;42.716;23.312;2022-08-01T11:42:39;1.10;;;1.08;;
22935;SDS011;11633;42.716;23.312;2022-08-01T11:45:05;1.70;;;1.10;;
22935;SDS011;11633;42.716;23.312;2022-08-01T11:47:50;1.65;;;1.25;;
22935;SDS011;11633;42.716;23.312;2022-08-01T11:50:37;1.98;;;1.45;;
22935;SDS011;11633;42.716;23.312;2022-08-01T11:53:05;1.05;;;0.95;;
22935;SDS011;11633;42.716;23.312;2022-08-01T11:55:31;1.27;;;1.17;;
22935;SDS011;11633;42.716;23.312;2022-08-01T11:58:00;1.10;;;1.00;;
22935;SDS011;11633;42.716;23.312;2022-08-01T12:00:26;1.25;;;1.15;;
22935;SDS011;11633;42.716;23.312;2022-08-01T12:02:58;1.50;;;1.40;;
22935;SDS011;11633;42.716;23.312;2022-08-01T12:05:24;1.20;;;1.10;;
22935;SDS011;11633;42.716;23.312;2022-08-01T12:07:49;1.60;;;1.50;;
22935;SDS011;11633;42.716;23.312;2022-08-01T12:10:16;1.60;;;1.50;;
22935;SDS011;11633;42.716;23.312;2022-08-01T12:12:46;1.50;;;1.40;;
22935;SDS011;11633;42.716;23.312;2022-08-01T12:15:11;1.15;;;1.05;;
22935;SDS011;11633;42.716;23.312;2022-08-01T12:20:03;1.53;;;1.20;;
22935;SDS011;11633;42.716;23.312;2022-08-01T12:22:29;1.52;;;1.42;;
22935;SDS011;11633;42.716;23.312;2022-08-01T12:24:54;1.58;;;1.45;;
22935;SDS011;11633;42.716;23.312;2022-08-01T12:27:28;1.58;;;1.20;;
22935;SDS011;11633;42.716;23.312;2022-08-01T12:29:55;1.45;;;1.35;;
22935;SDS011;11633;42.716;23.312;2022-08-01T12:32:24;2.00;;;1.45;;
22935;SDS011;11633;42.716;23.312;2022-08-01T12:34:50;2.03;;;1.63;;
22935;SDS011;11633;42.716;23.312;2022-08-01T12:37:16;1.50;;;1.40;;
22935;SDS011;11633;42.716;23.312;2022-08-01T12:39:41;1.75;;;1.30;;
22935;SDS011;11633;42.716;23.312;2022-08-01T12:42:07;1.30;;;1.20;;
22935;SDS011;11633;42.716;23.312;2022-08-01T12:44:32;1.48;;;1.38;;
22935;SDS011;11633;42.716;23.312;2022-08-01T12:46:58;1.67;;;1.52;;
22935;SDS011;11633;42.716;23.312;2022-08-01T12:49:25;2.38;;;1.80;;
22935;SDS011;11633;42.716;23.312;2022-08-01T12:51:54;2.28;;;1.50;;
22935;SDS011;11633;42.716;23.312;2022-08-01T12:54:22;2.00;;;1.13;;
22935;SDS011;11633;42.716;23.312;2022-08-01T12:56:50;1.25;;;1.10;;
22935;SDS011;11633;42.716;23.312;2022-08-01T12:59:22;1.35;;;1.25;;
22935;SDS011;11633;42.716;23.312;2022-08-01T13:01:49;2.03;;;1.65;;
22935;SDS011;11633;42.716;23.312;2022-08-01T13:04:14;1.45;;;1.35;;
22935;SDS011;11633;42.716;23.312;2022-08-01T13:06:39;1.35;;;1.25;;
22935;SDS011;11633;42.716;23.312;2022-08-01T13:09:05;1.40;;;1.30;;
22935;SDS011;11633;42.716;23.312;2022-08-01T13:11:31;1.33;;;1.20;;
22935;SDS011;11633;42.716;23.312;2022-08-01T13:13:59;1.38;;;1.15;;
22935;SDS011;11633;42.716;23.312;2022-08-01T13:16:25;1.27;;;1.20;;
22935;SDS011;11633;42.716;23.312;2022-08-01T13:18:51;1.25;;;1.15;;
22935;SDS011;11633;42.716;23.312;2022-08-01T13:21:17;1.55;;;1.45;;
22935;SDS011;11633;42.716;23.312;2022-08-01T13:24:00;1.50;;;1.40;;
22935;SDS011;11633;42.716;23.312;2022-08-01T13:29:09;1.40;;;1.30;;
22935;SDS011;11633;42.716;23.312;2022-08-01T13:31:35;2.63;;;1.25;;
22935;SDS011;11633;42.716;23.312;2022-08-01T13:34:00;1.98;;;1.13;;
22935;SDS011;11633;42.716;23.312;2022-08-01T13:36:26;2.72;;;1.30;;
22935;SDS011;11633;42.716;23.312;2022-08-01T13:38:56;1.23;;;1.13;;
22935;SDS011;11633;42.716;23.312;2022-08-01T13:41:40;1.48;;;1.38;;
22935;SDS011;11633;42.716;23.312;2022-08-01T13:44:05;1.95;;;1.30;;
22935;SDS011;11633;42.716;23.312;2022-08-01T13:46:33;1.00;;;1.00;;
22935;SDS011;11633;42.716;23.312;2022-08-01T13:48:58;1.30;;;1.20;;
22935;SDS011;11633;42.716;23.312;2022-08-01T13:51:24;1.08;;;1.08;;
22935;SDS011;11633;42.716;23.312;2022-08-01T13:53:49;1.02;;;1.02;;
22935;SDS011;11633;42.716;23.312;2022-08-01T13:56:14;1.40;;;1.30;;
22935;SDS011;11633;42.716;23.312;2022-08-01T13:58:42;1.50;;;1.20;;
22935;SDS011;11633;42.716;23.312;2022-08-01T14:01:07;0.98;;;0.95;;
22935;SDS011;11633;42.716;23.312;2022-08-01T14:03:33;0.77;;;0.77;;
22935;SDS011;11633;42.716;23.312;2022-08-01T14:05:58;1.40;;;1.30;;
22935;SDS011;11633;42.716;23.312;2022-08-01T14:08:24;1.30;;;1.20;;
22935;SDS011;11633;42.716;23.312;2022-08-01T14:10:49;1.20;;;1.10;;
22935;SDS011;11633;42.716;23.312;2022-08-01T14:13:14;1.83;;;1.52;;
22935;SDS011;11633;42.716;23.312;2022-08-01T14:15:40;2.35;;;1.20;;
22935;SDS011;11633;42.716;23.312;2022-08-01T14:18:08;2.30;;;1.05;;
22935;SDS011;11633;42.716;23.312;2022-08-01T14:20:34;1.27;;;1.17;;
22935;SDS011;11633;42.716;23.312;2022-08-01T14:22:59;1.33;;;1.23;;
22935;SDS011;11633;42.716;23.312;2022-08-01T14:25:24;1.30;;;1.30;;
22935;SDS011;11633;42.716;23.312;2022-08-01T14:27:49;1.33;;;1.23;;
22935;SDS011;11633;42.716;23.312;2022-08-01T14:30:15;1.60;;;1.48;;
22935;SDS011;11633;42.716;23.312;2022-08-01T14:32:40;1.90;;;1.10;;
22935;SDS011;11633;42.716;23.312;2022-08-01T14:35:05;1.20;;;1.10;;
22935;SDS011;11633;42.716;23.312;2022-08-01T14:37:31;1.40;;;1.30;;
22935;SDS011;11633;42.716;23.312;2022-08-01T14:39:57;2.28;;;1.20;;
22935;SDS011;11633;42.716;23.312;2022-08-01T14:42:22;1.23;;;1.13;;
22935;SDS011;11633;42.716;23.312;2022-08-01T14:44:48;0.95;;;0.95;;
22935;SDS011;11633;42.716;23.312;2022-08-01T14:47:13;1.48;;;1.13;;
22935;SDS011;11633;42.716;23.312;2022-08-01T14:49:38;0.95;;;0.95;;
22935;SDS011;11633;42.716;23.312;2022-08-01T14:52:03;1.30;;;1.20;;
22935;SDS011;11633;42.716;23.312;2022-08-01T14:54:29;2.13;;;1.30;;
22935;SDS011;11633;42.716;23.312;2022-08-01T14:56:54;1.20;;;1.08;;
22935;SDS011;11633;42.716;23.312;2022-08-01T14:59:19;1.58;;;1.48;;
22935;SDS011;11633;42.716;23.312;2022-08-01T15:01:45;0.90;;;0.90;;
22935;SDS011;11633;42.716;23.312;2022-08-01T15:04:10;1.52;;;1.13;;
22935;SDS011;11633;42.716;23.312;2022-08-01T15:06:35;1.23;;;1.10;;
22935;SDS011;11633;42.716;23.312;2022-08-01T15:09:01;1.50;;;1.40;;